createdAt,value
2018-12-29T00:01:36.115Z,28.42
2018-12-29T00:04:05.891Z,29.18
2018-12-29T00:06:36.532Z,28.07
2018-12-29T00:09:06.905Z,28.50
2018-12-29T00:11:36.398Z,28.67
2018-12-29T00:14:06.115Z,29.40
2018-12-29T00:16:35.616Z,29.92
2018-12-29T00:19:05.206Z,29.83
2018-12-29T00:21:34.714Z,29.90
2018-12-29T00:24:04.318Z,27.60
2018-12-29T00:26:34.392Z,27.90
2018-12-29T00:29:03.906Z,28.67
2018-12-29T00:31:33.579Z,27.48
2018-12-29T00:34:03.872Z,27.93
2018-12-29T00:36:33.650Z,28.40
2018-12-29T00:39:03.657Z,28.43
2018-12-29T00:41:33.528Z,27.33
2018-12-29T00:44:03.023Z,25.90
2018-12-29T00:46:32.606Z,24.90
2018-12-29T00:49:02.264Z,26.10
2018-12-29T00:51:32.069Z,25.43
2018-12-29T00:54:02.567Z,24.47
2018-12-29T00:56:32.350Z,23.57
2018-12-29T00:59:02.340Z,24.37
2018-12-29T01:01:32.103Z,23.27
2018-12-29T01:04:02.845Z,21.73
2018-12-29T01:06:32.354Z,22.40
2018-12-29T01:09:02.766Z,24.90
2018-12-29T01:11:32.301Z,24.70
2018-12-29T01:14:01.772Z,24.47
2018-12-29T01:16:32.000Z,22.77
2018-12-29T01:19:01.912Z,23.77
2018-12-29T01:21:31.778Z,24.60
2018-12-29T01:24:02.218Z,25.57
2018-12-29T01:26:32.072Z,25.47
2018-12-29T01:29:02.186Z,24.35
2018-12-29T01:31:31.886Z,25.63
2018-12-29T01:34:02.200Z,23.02
2018-12-29T01:36:33.694Z,22.60
2018-12-29T01:39:04.110Z,23.10
2018-12-29T01:41:34.006Z,22.93
2018-12-29T01:44:03.527Z,23.33
2018-12-29T01:46:33.212Z,23.80
2018-12-29T01:49:02.690Z,25.20
2018-12-29T01:51:32.478Z,24.47
2018-12-29T01:54:02.302Z,23.73
2018-12-29T01:56:31.965Z,24.37
2018-12-29T01:59:02.057Z,23.05
2018-12-29T02:01:32.360Z,25.05
2018-12-29T02:04:02.557Z,23.27
2018-12-29T02:06:32.435Z,22.93
2018-12-29T02:09:01.951Z,22.13
2018-12-29T02:11:32.566Z,22.63
2018-12-29T02:14:02.050Z,23.33
2018-12-29T02:16:32.418Z,22.25
2018-12-29T02:19:01.916Z,21.97
2018-12-29T02:21:32.461Z,22.70
2018-12-29T02:24:02.257Z,23.43
2018-12-29T02:26:31.980Z,23.42
2018-12-29T02:29:02.504Z,22.52
2018-12-29T02:31:32.309Z,21.90
2018-12-29T02:34:02.636Z,22.50
2018-12-29T02:39:09.261Z,22.20
2018-12-29T02:41:39.644Z,21.87
2018-12-29T02:44:09.844Z,22.50
2018-12-29T02:46:39.584Z,20.90
2018-12-29T02:49:09.172Z,23.15
2018-12-29T02:51:38.670Z,23.40
2018-12-29T02:54:09.072Z,23.67
2018-12-29T02:56:38.861Z,23.67
2018-12-29T02:59:08.371Z,23.90
2018-12-29T03:01:38.460Z,23.77
2018-12-29T03:04:08.015Z,23.95
2018-12-29T03:06:37.611Z,23.43
2018-12-29T03:09:07.193Z,23.03
2018-12-29T03:11:37.262Z,22.20
2018-12-29T03:14:06.781Z,26.57
2018-12-29T03:16:36.577Z,25.17
2018-12-29T03:19:06.147Z,24.17
2018-12-29T03:21:35.685Z,26.83
2018-12-29T03:24:05.178Z,25.87
2018-12-29T03:26:35.207Z,25.70
2018-12-29T03:29:04.989Z,26.13
2018-12-29T03:31:34.766Z,26.63
2018-12-29T03:34:04.363Z,26.03
2018-12-29T03:36:34.432Z,26.40
2018-12-29T03:39:06.204Z,25.67
2018-12-29T03:41:36.183Z,27.90
2018-12-29T03:44:06.224Z,26.80
2018-12-29T03:46:36.966Z,27.10
2018-12-29T03:49:06.757Z,26.00
2018-12-29T03:51:36.559Z,27.77
2018-12-29T03:54:06.140Z,26.87
2018-12-29T03:56:36.208Z,27.00
2018-12-29T03:59:05.688Z,27.33
2018-12-29T04:01:35.361Z,27.90
2018-12-29T04:04:04.865Z,27.47
2018-12-29T04:06:34.714Z,28.80
2018-12-29T04:09:40.458Z,27.70
2018-12-29T04:12:13.559Z,26.90
2018-12-29T04:14:44.655Z,27.73
2018-12-29T04:17:14.834Z,28.38
2018-12-29T04:19:44.380Z,25.90
2018-12-29T04:22:14.596Z,25.88
2018-12-29T04:24:44.380Z,23.65
2018-12-29T04:27:14.011Z,26.27
2018-12-29T04:29:45.236Z,26.80
2018-12-29T04:32:15.294Z,24.77
2018-12-29T04:34:45.619Z,26.10
2018-12-29T04:37:15.135Z,26.00
2018-12-29T04:39:45.181Z,26.10
2018-12-29T04:42:15.061Z,26.15
2018-12-29T04:44:44.898Z,26.52
2018-12-29T04:47:14.824Z,26.17
2018-12-29T04:49:44.318Z,26.77
2018-12-29T04:52:14.763Z,26.83
2018-12-29T04:54:44.262Z,25.03
2018-12-29T04:57:14.018Z,26.60
2018-12-29T04:59:43.524Z,26.30
2018-12-29T05:02:13.337Z,27.02
2018-12-29T05:04:44.080Z,24.95
2018-12-29T05:07:13.875Z,25.68
2018-12-29T05:09:43.405Z,25.17
2018-12-29T05:12:12.920Z,25.30
2018-12-29T05:14:43.160Z,27.15
2018-12-29T05:17:12.950Z,28.27
2018-12-29T05:19:42.453Z,25.10
2018-12-29T05:22:12.208Z,26.60
2018-12-29T05:24:42.008Z,26.87
2018-12-29T05:27:11.768Z,26.23
2018-12-29T05:29:41.866Z,25.27
2018-12-29T05:32:12.159Z,27.33
2018-12-29T05:34:41.970Z,24.55
2018-12-29T05:37:12.893Z,25.93
2018-12-29T05:39:42.696Z,25.77
2018-12-29T05:42:12.763Z,27.87
2018-12-29T05:44:42.555Z,24.20
2018-12-29T05:47:12.653Z,26.90
2018-12-29T05:49:42.782Z,26.83
2018-12-29T05:52:12.867Z,25.70
2018-12-29T05:54:42.373Z,26.03
2018-12-29T05:57:12.172Z,26.07
2018-12-29T05:59:42.153Z,27.13
2018-12-29T06:02:12.255Z,28.10
2018-12-29T06:04:42.319Z,26.43
2018-12-29T06:07:12.373Z,26.60
2018-12-29T06:09:42.526Z,27.43
2018-12-29T06:12:12.304Z,27.57
2018-12-29T06:14:41.823Z,26.40
2018-12-29T06:17:11.792Z,26.62
2018-12-29T06:19:41.566Z,26.13
2018-12-29T06:22:11.337Z,27.37
2018-12-29T06:24:40.827Z,25.62
2018-12-29T06:27:10.571Z,26.67
2018-12-29T06:29:40.460Z,24.70
2018-12-29T06:32:10.326Z,25.60
2018-12-29T06:34:40.705Z,26.20
2018-12-29T06:37:10.264Z,27.00
2018-12-29T06:39:40.052Z,26.87
2018-12-29T06:42:09.565Z,26.80
2018-12-29T06:44:39.585Z,25.47
2018-12-29T06:47:09.549Z,23.92
2018-12-29T06:49:39.187Z,25.63
2018-12-29T06:52:09.235Z,25.30
2018-12-29T06:54:39.021Z,24.90
2018-12-29T06:57:10.151Z,23.00
2018-12-29T06:59:40.076Z,24.57
2018-12-29T07:02:10.070Z,23.70
2018-12-29T07:04:39.859Z,23.67
2018-12-29T07:07:09.351Z,22.90
2018-12-29T07:09:39.113Z,24.57
2018-12-29T07:12:08.683Z,24.90
2018-12-29T07:14:38.736Z,23.13
2018-12-29T07:17:08.535Z,23.07
2018-12-29T07:19:38.556Z,24.60
2018-12-29T07:22:08.095Z,23.80
2018-12-29T07:24:38.150Z,23.37
2018-12-29T07:27:08.225Z,22.10
2018-12-29T07:29:38.523Z,23.67
2018-12-29T07:32:08.396Z,24.30
2018-12-29T07:34:38.445Z,23.05
2018-12-29T07:37:08.033Z,23.30
2018-12-29T07:39:37.776Z,22.97
2018-12-29T07:42:07.805Z,21.87
2018-12-29T07:44:37.886Z,21.97
2018-12-29T07:47:07.691Z,21.12
2018-12-29T07:49:38.061Z,22.07
2018-12-29T07:52:08.218Z,21.10
2018-12-29T07:54:37.950Z,20.13
2018-12-29T07:57:07.493Z,21.20
2018-12-29T07:59:37.669Z,21.03
2018-12-29T08:02:07.750Z,21.73
2018-12-29T08:04:37.817Z,21.90
2018-12-29T08:07:07.612Z,22.40
2018-12-29T08:09:38.139Z,21.70
2018-12-29T08:12:07.640Z,22.65
2018-12-29T08:14:37.405Z,21.77
2018-12-29T08:17:07.019Z,20.63
2018-12-29T08:19:36.865Z,20.43
2018-12-29T08:22:06.655Z,20.90
2018-12-29T08:24:36.158Z,21.10
2018-12-29T08:27:06.412Z,20.90
2018-12-29T08:29:35.903Z,20.67
2018-12-29T08:32:05.763Z,20.53
2018-12-29T08:34:36.499Z,21.02
2018-12-29T08:37:06.396Z,21.13
2018-12-29T08:39:36.220Z,21.47
2018-12-29T08:42:05.979Z,21.33
2018-12-29T08:44:36.542Z,22.43
2018-12-29T08:47:06.039Z,20.87
2018-12-29T08:49:35.522Z,22.23
2018-12-29T08:52:05.255Z,23.03
2018-12-29T08:54:35.019Z,20.90
2018-12-29T08:57:04.514Z,22.07
2018-12-29T08:59:34.005Z,19.27
2018-12-29T09:02:03.822Z,20.67
2018-12-29T09:04:33.391Z,20.30
2018-12-29T09:07:03.444Z,21.68
2018-12-29T09:09:33.462Z,21.20
2018-12-29T09:12:03.532Z,21.87
2018-12-29T09:14:33.761Z,20.73
2018-12-29T09:17:03.715Z,20.65
2018-12-29T09:19:33.744Z,21.02
2018-12-29T09:22:03.461Z,20.27
2018-12-29T09:24:33.995Z,20.37
2018-12-29T09:27:03.866Z,20.40
2018-12-29T09:29:33.556Z,18.82
2018-12-29T09:32:03.813Z,18.70
2018-12-29T09:34:34.632Z,18.42
2018-12-29T09:37:04.408Z,17.17
2018-12-29T09:39:34.213Z,17.73
2018-12-29T09:42:03.766Z,17.07
2018-12-29T09:44:34.227Z,16.73
2018-12-29T09:47:03.811Z,17.60
2018-12-29T09:49:34.380Z,17.30
2018-12-29T09:52:04.459Z,16.20
2018-12-29T09:54:33.953Z,17.27
2018-12-29T09:57:03.935Z,14.25
2018-12-29T09:59:34.582Z,16.75
2018-12-29T10:02:04.345Z,15.37
2018-12-29T10:04:34.788Z,14.33
2018-12-29T10:07:04.892Z,14.87
2018-12-29T10:09:34.425Z,14.33
2018-12-29T10:12:04.530Z,14.93
2018-12-29T10:14:34.632Z,15.48
2018-12-29T10:17:04.283Z,14.00
2018-12-29T10:19:34.770Z,15.58
2018-12-29T10:22:05.774Z,16.20
2018-12-29T10:24:35.267Z,14.67
2018-12-29T10:27:04.950Z,14.40
2018-12-29T10:29:35.100Z,14.47
2018-12-29T10:32:05.001Z,12.30
2018-12-29T10:34:34.582Z,13.67
2018-12-29T10:37:04.952Z,12.87
2018-12-29T10:39:34.686Z,13.68
2018-12-29T10:42:04.997Z,12.33
2018-12-29T10:44:34.792Z,13.35
2018-12-29T10:47:05.038Z,13.03
2018-12-29T10:49:35.106Z,13.28
2018-12-29T10:52:05.056Z,13.30
2018-12-29T10:54:35.442Z,12.65
2018-12-29T10:57:05.632Z,12.30
2018-12-29T10:59:35.658Z,12.57
2018-12-29T11:02:05.166Z,12.93
2018-12-29T11:04:35.909Z,13.83
2018-12-29T11:07:05.444Z,12.53
2018-12-29T11:09:35.161Z,12.30
2018-12-29T11:12:05.359Z,13.03
2018-12-29T11:14:35.295Z,12.27
2018-12-29T11:17:05.314Z,12.55
2018-12-29T11:19:35.649Z,12.70
2018-12-29T11:22:06.100Z,11.47
2018-12-29T11:24:37.341Z,12.90
2018-12-29T11:27:08.078Z,11.53
2018-12-29T11:29:37.928Z,12.10
2018-12-29T11:32:07.439Z,12.85
2018-12-29T11:34:37.570Z,12.73
2018-12-29T11:37:07.071Z,12.30
2018-12-29T11:39:36.674Z,12.37
2018-12-29T11:42:06.191Z,12.47
2018-12-29T11:44:35.970Z,12.47
2018-12-29T11:47:05.902Z,11.53
2018-12-29T11:49:36.000Z,11.95
2018-12-29T11:52:06.153Z,11.68
2018-12-29T11:54:35.983Z,10.93
2018-12-29T11:57:06.259Z,11.53
2018-12-29T11:59:36.685Z,11.85
2018-12-29T12:02:06.548Z,11.67
2018-12-29T12:04:36.728Z,10.57
2018-12-29T12:07:06.947Z,11.40
2018-12-29T12:09:36.480Z,11.43
2018-12-29T12:12:06.241Z,11.08
2018-12-29T12:14:36.301Z,11.80
2018-12-29T12:17:06.980Z,11.83
2018-12-29T12:19:37.024Z,11.50
2018-12-29T12:22:06.823Z,12.50
2018-12-29T12:24:37.277Z,12.00
2018-12-29T12:27:07.242Z,11.77
2018-12-29T12:29:37.322Z,11.37
2018-12-29T12:32:06.829Z,12.40
2018-12-29T12:34:37.236Z,11.50
2018-12-29T12:37:06.758Z,12.17
2018-12-29T12:39:37.236Z,13.28
2018-12-29T12:42:07.109Z,12.50
2018-12-29T12:44:37.016Z,12.90
2018-12-29T12:47:07.899Z,12.80
2018-12-29T12:49:38.031Z,12.83
2018-12-29T12:52:07.820Z,12.83
2018-12-29T12:54:37.657Z,12.50
2018-12-29T12:57:07.507Z,12.33
2018-12-29T12:59:37.637Z,12.93
2018-12-29T13:02:10.457Z,13.20
2018-12-29T13:04:40.264Z,12.70
2018-12-29T13:07:10.411Z,13.20
2018-12-29T13:09:40.330Z,13.83
2018-12-29T13:12:09.861Z,13.20
2018-12-29T13:14:40.649Z,13.60
2018-12-29T13:17:10.419Z,13.63
2018-12-29T13:19:40.008Z,13.83
2018-12-29T13:22:09.584Z,13.15
2018-12-29T13:24:39.220Z,14.30
2018-12-29T13:27:08.964Z,13.20
2018-12-29T13:29:38.842Z,14.80
2018-12-29T13:32:08.455Z,13.40
2018-12-29T13:34:38.193Z,14.87
2018-12-29T13:37:09.302Z,13.93
2018-12-29T13:39:39.122Z,14.87
2018-12-29T13:42:08.599Z,15.07
2018-12-29T13:44:38.886Z,14.40
2018-12-29T13:47:08.360Z,13.63
2018-12-29T13:49:38.122Z,15.45
2018-12-29T13:52:08.152Z,14.93
2018-12-29T13:54:38.175Z,15.53
2018-12-29T13:57:09.496Z,15.13
2018-12-29T13:59:39.890Z,15.37
2018-12-29T14:02:09.664Z,14.73
2018-12-29T14:04:39.475Z,15.43
2018-12-29T14:07:10.941Z,15.03
2018-12-29T14:09:40.785Z,15.70
2018-12-29T14:12:10.825Z,15.93
2018-12-29T14:14:40.645Z,15.60
2018-12-29T14:17:11.085Z,15.83
2018-12-29T14:19:40.881Z,15.73
2018-12-29T14:22:10.704Z,16.23
2018-12-29T14:24:40.214Z,15.50
2018-12-29T14:27:11.835Z,17.60
2018-12-29T14:29:44.817Z,16.57
2018-12-29T14:32:14.399Z,17.43
2018-12-29T14:34:44.200Z,17.53
2018-12-29T14:37:13.973Z,16.80
2018-12-29T14:39:44.061Z,16.80
2018-12-29T14:42:13.611Z,17.73
2018-12-29T14:44:43.396Z,16.13
2018-12-29T14:47:13.224Z,17.00
2018-12-29T14:49:44.117Z,16.70
2018-12-29T14:52:14.136Z,16.93
2018-12-29T14:54:43.729Z,16.90
2018-12-29T14:57:13.928Z,16.42
2018-12-29T14:59:43.486Z,17.93
2018-12-29T15:02:13.437Z,16.93
2018-12-29T15:04:42.930Z,17.33
2018-12-29T15:07:12.752Z,17.70
2018-12-29T15:09:43.034Z,17.27
2018-12-29T15:12:12.845Z,17.43
2018-12-29T15:14:42.324Z,16.53
2018-12-29T15:17:11.914Z,17.17
2018-12-29T15:19:41.421Z,16.83
2018-12-29T15:22:11.197Z,17.03
2018-12-29T15:24:41.047Z,16.07
2018-12-29T15:27:10.578Z,15.27
2018-12-29T15:29:40.348Z,15.30
2018-12-29T15:32:12.483Z,16.87
2018-12-29T15:34:42.005Z,14.37
2018-12-29T15:37:11.625Z,15.03
2018-12-29T15:39:44.970Z,13.57
2018-12-29T15:42:15.313Z,12.65
2018-12-29T15:44:45.404Z,13.33
2018-12-29T15:47:14.867Z,13.62
2018-12-29T15:49:44.847Z,12.60
2018-12-29T15:52:14.330Z,11.60
2018-12-29T15:54:44.197Z,12.53
2018-12-29T15:57:13.979Z,11.23
2018-12-29T15:59:43.843Z,11.87
2018-12-29T16:02:13.656Z,11.63
2018-12-29T16:04:43.226Z,12.13
2018-12-29T16:07:12.752Z,12.60
2018-12-29T16:09:42.290Z,14.17
2018-12-29T16:12:12.045Z,13.57
2018-12-29T16:14:41.858Z,13.00
2018-12-29T16:17:11.347Z,12.10
2018-12-29T16:19:41.166Z,13.27
2018-12-29T16:22:10.991Z,14.10
2018-12-29T16:24:41.074Z,12.60
2018-12-29T16:27:12.087Z,14.50
2018-12-29T16:29:41.648Z,14.30
2018-12-29T16:32:11.422Z,14.10
2018-12-29T16:34:42.518Z,13.97
2018-12-29T16:37:12.011Z,14.03
2018-12-29T16:39:41.831Z,14.80
2018-12-29T16:42:12.080Z,13.20
2018-12-29T16:44:41.623Z,15.57
2018-12-29T16:47:11.350Z,15.03
2018-12-29T16:49:41.190Z,15.43
2018-12-29T16:52:11.898Z,14.30
2018-12-29T16:54:42.006Z,13.93
2018-12-29T16:57:11.608Z,15.13
2018-12-29T16:59:41.741Z,15.23
2018-12-29T17:02:11.638Z,15.55
2018-12-29T17:04:41.711Z,16.83
2018-12-29T17:07:11.414Z,16.57
2018-12-29T17:09:42.343Z,19.05
2018-12-29T17:12:12.403Z,19.50
2018-12-29T17:14:42.246Z,18.37
2018-12-29T17:17:13.041Z,18.17
2018-12-29T17:19:43.792Z,19.07
2018-12-29T17:22:13.741Z,18.67
2018-12-29T17:24:43.580Z,18.97
2018-12-29T17:27:13.093Z,17.97
2018-12-29T17:29:42.931Z,16.63
2018-12-29T17:32:12.702Z,15.20
2018-12-29T17:34:42.517Z,15.20
2018-12-29T17:37:12.020Z,13.83
2018-12-29T17:39:42.728Z,15.00
2018-12-29T17:42:12.199Z,13.70
2018-12-29T17:44:42.418Z,12.55
2018-12-29T17:47:12.643Z,12.60
2018-12-29T17:49:42.216Z,11.27
2018-12-29T17:52:12.442Z,11.77
2018-12-29T17:54:43.433Z,11.65
2018-12-29T17:57:12.949Z,10.80
2018-12-29T17:59:42.495Z,12.23
2018-12-29T18:02:13.348Z,10.57
2018-12-29T18:04:42.901Z,10.70
2018-12-29T18:07:12.509Z,9.53
2018-12-29T18:09:42.797Z,9.70
2018-12-29T18:12:12.813Z,10.13
2018-12-29T18:14:42.931Z,10.90
2018-12-29T18:17:13.060Z,11.60
2018-12-29T18:19:42.962Z,9.43
2018-12-29T18:22:12.735Z,11.13
2018-12-29T18:24:42.733Z,11.18
2018-12-29T18:27:13.016Z,10.73
2018-12-29T18:29:42.996Z,9.60
2018-12-29T18:32:12.857Z,10.40
2018-12-29T18:34:43.174Z,9.95
2018-12-29T18:37:13.732Z,8.90
2018-12-29T18:39:43.603Z,8.70
2018-12-29T18:42:13.140Z,7.70
2018-12-29T18:44:43.147Z,9.23
2018-12-29T18:47:13.466Z,8.18
2018-12-29T18:49:43.266Z,9.10
2018-12-29T18:52:13.881Z,8.53
2018-12-29T18:54:43.924Z,8.80
2018-12-29T18:57:13.479Z,8.87
2018-12-29T18:59:43.746Z,10.23
2018-12-29T19:02:13.424Z,9.27
2018-12-29T19:04:43.374Z,9.30
2018-12-29T19:07:13.384Z,8.97
2018-12-29T19:09:43.413Z,8.95
2018-12-29T19:12:13.510Z,7.78
2018-12-29T19:14:43.521Z,8.15
2018-12-29T19:17:14.299Z,9.37
2018-12-29T19:19:46.492Z,8.33
2018-12-29T19:22:17.299Z,8.10
2018-12-29T19:24:47.062Z,6.70
2018-12-29T19:27:16.590Z,7.70
2018-12-29T19:29:46.726Z,6.93
2018-12-29T19:32:16.944Z,7.23
2018-12-29T19:34:47.104Z,7.10
2018-12-29T19:37:17.027Z,5.70
2018-12-29T19:39:46.515Z,6.43
2018-12-29T19:42:16.669Z,6.20
2018-12-29T19:44:46.495Z,6.20
2018-12-29T19:47:16.655Z,5.40
2018-12-29T19:49:53.508Z,4.77
2018-12-29T19:52:17.514Z,5.40
2018-12-29T19:54:48.748Z,6.08
2018-12-29T19:57:18.864Z,4.85
2018-12-29T19:59:49.467Z,5.37
2018-12-29T20:02:19.617Z,6.83
2018-12-29T20:04:49.713Z,5.33
2018-12-29T20:07:19.840Z,5.00
2018-12-29T20:09:49.717Z,5.13
2018-12-29T20:12:19.543Z,5.25
2018-12-29T20:14:49.033Z,5.23
2018-12-29T20:17:18.973Z,4.83
2018-12-29T20:19:48.770Z,5.65
2018-12-29T20:22:18.584Z,5.13
2018-12-29T20:24:48.321Z,5.50
2018-12-29T20:27:18.163Z,6.93
2018-12-29T20:29:48.028Z,6.63
2018-12-29T20:32:17.747Z,6.27
2018-12-29T20:34:47.322Z,6.43
2018-12-29T20:37:16.859Z,7.33
2018-12-29T20:39:46.933Z,7.53
2018-12-29T20:42:16.751Z,8.37
2018-12-29T20:44:46.615Z,8.50
2018-12-29T20:47:17.054Z,9.07
2018-12-29T20:49:47.317Z,9.50
2018-12-29T20:52:17.098Z,9.67
2018-12-29T20:54:46.656Z,11.43
2018-12-29T20:57:16.635Z,10.70
2018-12-29T20:59:46.428Z,11.50
2018-12-29T21:02:16.283Z,12.60
2018-12-29T21:04:46.129Z,12.50
2018-12-29T21:07:16.002Z,13.67
2018-12-29T21:09:46.086Z,13.47
2018-12-29T21:12:16.031Z,13.60
2018-12-29T21:14:45.642Z,14.00
2018-12-29T21:17:15.898Z,14.90
2018-12-29T21:19:45.956Z,13.90
2018-12-29T21:22:15.937Z,15.20
2018-12-29T21:24:46.010Z,15.73
2018-12-29T21:27:15.892Z,14.13
2018-12-29T21:29:45.866Z,14.53
2018-12-29T21:32:15.885Z,13.48
2018-12-29T21:34:45.870Z,10.87
2018-12-29T21:37:16.096Z,10.98
2018-12-29T21:39:45.954Z,8.43
2018-12-29T21:42:16.041Z,8.43
2018-12-29T21:44:46.603Z,7.35
2018-12-29T21:47:16.938Z,6.10
2018-12-29T21:49:46.705Z,5.93
2018-12-29T21:52:16.280Z,5.93
2018-12-29T21:54:46.215Z,6.37
2018-12-29T21:57:16.638Z,4.95
2018-12-29T21:59:46.417Z,4.70
2018-12-29T22:02:16.333Z,4.03
2018-12-29T22:04:46.684Z,4.37
2018-12-29T22:07:16.689Z,3.67
2018-12-29T22:09:46.418Z,3.52
2018-12-29T22:12:16.510Z,2.60
2018-12-29T22:14:49.241Z,2.65
2018-12-29T22:17:19.143Z,2.17
2018-12-29T22:19:48.965Z,1.23
2018-12-29T22:22:18.745Z,1.20
2018-12-29T22:24:49.481Z,0.83
2018-12-29T22:27:20.687Z,1.10
2018-12-29T22:29:50.154Z,1.33
2018-12-29T22:32:19.630Z,1.10
2018-12-29T22:34:49.170Z,0.87
2018-12-29T22:37:19.203Z,1.37
2018-12-29T22:39:49.315Z,0.83
2018-12-29T22:42:19.104Z,0.97
2018-12-29T22:44:48.887Z,1.07
2018-12-29T22:47:18.451Z,1.00
2018-12-29T22:49:47.930Z,1.10
2018-12-29T22:52:17.569Z,1.10
2018-12-29T22:54:48.090Z,0.50
2018-12-29T22:57:18.213Z,0.50
2018-12-29T22:59:47.696Z,0.73
2018-12-29T23:02:17.606Z,0.50
2018-12-29T23:04:47.685Z,0.50
2018-12-29T23:07:18.574Z,0.42
2018-12-29T23:09:48.506Z,0.50
2018-12-29T23:12:18.118Z,0.60
2018-12-29T23:14:47.849Z,0.40
2018-12-29T23:17:18.357Z,0.57
2018-12-29T23:19:48.055Z,0.43
2018-12-29T23:22:18.210Z,0.73
2018-12-29T23:24:49.241Z,0.70
2018-12-29T23:27:20.929Z,0.50
2018-12-29T23:29:50.713Z,0.50
2018-12-29T23:32:20.221Z,0.50
2018-12-29T23:34:50.671Z,0.50
2018-12-29T23:37:20.409Z,1.47
2018-12-29T23:39:50.558Z,0.77
2018-12-29T23:42:20.373Z,0.30
2018-12-29T23:44:50.847Z,0.50
2018-12-29T23:47:20.710Z,0.67
2018-12-29T23:49:50.580Z,0.77
2018-12-29T23:52:20.576Z,0.70
2018-12-29T23:54:50.072Z,0.40
2018-12-29T23:57:20.054Z,0.60
2018-12-29T23:59:49.870Z,1.07
